Terminal Aerodrome Forecast
Issued by NWS

Home | Current Version | Previous Version | Text Only | Print | Product List | Glossary On
Versions: 1 2 3 4 5 6 7 8 9 10 11 12 13 14 15 16 17 18 19 20 21 22 23 24 25 26 27 28 29 30 31 32 33 34 35 36 37 38 39 40 41 42 43 44 45 46 47 48
000
FTUS45 KGJT 240403 AAC
TAFASE
TAF AMD
KASE 240403Z 2404/2424 20005KT P6SM VCSH SCT060 SCT070 OVC090
      TEMPO 2404/2406 3SM -SHSN BR BKN020 OVC030
     FM240600 20007KT 4SM -SHSN BKN020 OVC040
     FM241100 23005KT P6SM VCSH BKN020 OVC040
     FM241800 35008KT P6SM BKN015=

USA.gov is the U.S. government's official web portal to all federal, state and local government web resources and services.